Time;durP1;ratioP1;P1;durP2;ratioP2;P2;SDS_P1;SDS_P2;PMS_P1;PMS_P2;Temp;Humidity;BMP_temperature;BMP_pressure;BME280_temperature;BME280_humidity;BME280_pressure;Samples;Min_cycle;Max_cycle;Signal;HPM_P1;HPM_P2
2022/05/28 00:00:53;;;;;;;13.20;9.50;;;;;;;9.08;100.00;98721.88;105295;1268;61317;-76
2022/05/28 00:03:21;;;;;;;11.50;10.20;;;;;;;9.03;100.00;98718.46;105320;1268;61305;-76
2022/05/28 00:05:47;;;;;;;12.70;9.80;;;;;;;9.00;100.00;98708.69;105279;1268;74535;-77
2022/05/28 00:08:15;;;;;;;9.90;8.90;;;;;;;8.96;100.00;98697.80;105280;1268;70252;-75
2022/05/28 00:10:44;;;;;;;9.60;8.50;;;;;;;8.91;100.00;98696.92;105010;1268;74617;-76
2022/05/28 00:13:11;;;;;;;10.30;9.30;;;;;;;8.84;100.00;98702.15;105460;1268;61301;-76
2022/05/28 00:15:41;;;;;;;11.70;10.30;;;;;;;8.82;100.00;98711.54;105240;1268;61898;-75
2022/05/28 00:18:08;;;;;;;11.30;9.90;;;;;;;8.82;100.00;98715.02;105336;1268;75310;-75
2022/05/28 00:20:35;;;;;;;12.70;9.90;;;;;;;8.84;100.00;98713.16;105352;1268;70123;-76
2022/05/28 00:23:04;;;;;;;13.20;9.00;;;;;;;8.83;100.00;98717.77;105338;1268;72223;-76
2022/05/28 00:25:30;;;;;;;13.20;9.20;;;;;;;8.83;100.00;98715.48;105367;1268;61375;-75
2022/05/28 00:27:57;;;;;;;11.40;9.50;;;;;;;8.84;100.00;98719.55;105278;1268;61274;-76
2022/05/28 00:30:24;;;;;;;12.70;9.90;;;;;;;8.83;100.00;98718.48;105298;1269;76342;-76
2022/05/28 00:32:50;;;;;;;10.70;9.50;;;;;;;8.85;100.00;98720.69;105338;1268;68609;-76
2022/05/28 00:35:19;;;;;;;11.00;9.90;;;;;;;8.86;100.00;98717.06;105276;1268;61149;-76
2022/05/28 00:37:47;;;;;;;10.30;9.20;;;;;;;8.87;100.00;98716.32;105101;1271;61279;-76
2022/05/28 00:40:19;;;;;;;10.30;9.10;;;;;;;8.89;100.00;98716.90;105049;1271;61889;-77
2022/05/28 00:42:45;;;;;;;11.20;8.70;;;;;;;8.91;100.00;98711.07;105077;1271;72899;-76
2022/05/28 00:45:12;;;;;;;12.50;8.90;;;;;;;8.94;100.00;98707.52;104779;1271;310190;-77
2022/05/28 00:47:47;;;;;;;12.30;9.30;;;;;;;8.97;100.00;98706.62;104984;1271;72344;-78
2022/05/28 00:50:15;;;;;;;12.60;9.30;;;;;;;9.01;100.00;98705.31;104952;1271;61392;-77
2022/05/28 00:52:42;;;;;;;12.70;9.30;;;;;;;9.04;100.00;98701.73;105141;1270;61474;-76
2022/05/28 00:55:09;;;;;;;10.20;9.10;;;;;;;9.07;100.00;98703.31;104983;1271;75244;-76
2022/05/28 00:57:38;;;;;;;10.90;9.60;;;;;;;9.09;100.00;98696.60;105047;1271;69214;-75
2022/05/28 01:00:12;;;;;;;9.60;8.60;;;;;;;9.11;100.00;98691.36;105270;1271;71904;-76
2022/05/28 01:02:48;;;;;;;12.10;9.90;;;;;;;9.10;100.00;98695.69;105047;1271;61395;-77
2022/05/28 01:05:26;;;;;;;10.90;9.70;;;;;;;9.11;100.00;98694.35;105046;1271;61586;-76
2022/05/28 01:08:12;;;;;;;10.40;9.30;;;;;;;9.13;100.00;98695.27;104953;1271;75253;-76
2022/05/28 01:10:43;;;;;;;10.70;9.40;;;;;;;9.14;100.00;98694.30;105288;1268;69569;-77
2022/05/28 01:13:13;;;;;;;10.00;8.90;;;;;;;9.15;100.00;98694.61;105300;1268;72791;-76
2022/05/28 01:15:46;;;;;;;12.00;9.90;;;;;;;9.15;100.00;98691.23;105295;1268;61366;-77
2022/05/28 01:18:32;;;;;;;12.20;9.80;;;;;;;9.17;100.00;98688.80;105304;1268;61378;-76
2022/05/28 01:21:06;;;;;;;14.10;9.20;;;;;;;9.18;100.00;98694.97;105316;1268;75172;-77
2022/05/28 01:24:15;;;;;;;11.60;10.40;;;;;;;9.18;100.00;98688.73;105266;1268;70281;-76
2022/05/28 01:27:07;;;;;;;11.00;9.90;;;;;;;9.19;100.00;98686.05;104483;1277;73183;-76
2022/05/28 01:29:45;;;;;;;14.90;9.70;;;;;;;9.16;100.00;98684.63;104776;1277;61377;-77
2022/05/28 01:32:14;;;;;;;10.20;9.10;;;;;;;9.12;100.00;98683.99;104751;1275;61495;-77
2022/05/28 01:34:42;;;;;;;12.30;9.70;;;;;;;9.08;100.00;98684.10;104960;1277;74274;-76
2022/05/28 01:37:10;;;;;;;12.50;9.90;;;;;;;9.03;100.00;98678.44;104724;1277;69304;-76
2022/05/28 01:39:40;;;;;;;11.00;9.50;;;;;;;8.98;100.00;98677.51;104691;1277;72454;-77
2022/05/28 01:42:09;;;;;;;12.90;9.80;;;;;;;8.92;100.00;98678.40;104778;1277;61246;-76
2022/05/28 01:44:38;;;;;;;12.00;9.40;;;;;;;8.87;100.00;98680.34;104865;1277;61241;-77
2022/05/28 01:47:05;;;;;;;13.00;10.70;;;;;;;8.80;100.00;98677.23;105009;1277;74402;-77
2022/05/28 01:49:34;;;;;;;13.90;11.20;;;;;;;8.74;100.00;98676.05;104894;1277;70238;-77
2022/05/28 01:52:02;;;;;;;10.70;9.70;;;;;;;8.69;100.00;98677.06;105615;1277;71398;-77
2022/05/28 01:54:34;;;;;;;11.40;10.30;;;;;;;8.66;100.00;98680.13;106043;1277;61272;-77
2022/05/28 01:57:01;;;;;;;11.80;10.60;;;;;;;8.63;100.00;98679.59;106002;1278;61277;-75
2022/05/28 01:59:31;;;;;;;13.00;11.40;;;;;;;8.60;100.00;98681.52;104975;1277;75278;-75
2022/05/28 02:02:00;;;;;;;12.60;10.60;;;;;;;8.59;100.00;98678.61;104982;1277;68686;-76
2022/05/28 02:04:29;;;;;;;14.70;12.30;;;;;;;8.57;100.00;98676.40;105200;1269;72197;-75
2022/05/28 02:06:56;;;;;;;12.80;11.50;;;;;;;8.58;100.00;98672.09;105345;1268;61396;-76
2022/05/28 02:09:29;;;;;;;14.40;12.10;;;;;;;8.56;100.00;98674.73;105349;1268;61799;-75
2022/05/28 02:12:07;;;;;;;13.10;10.90;;;;;;;8.56;100.00;98675.40;105300;1268;75046;-75
2022/05/28 02:14:59;;;;;;;14.60;12.60;;;;;;;8.56;100.00;98675.60;105280;1268;69188;-76
2022/05/28 02:17:37;;;;;;;12.80;11.50;;;;;;;8.54;100.00;98674.81;105285;1268;73227;-76
2022/05/28 02:20:28;;;;;;;14.60;12.90;;;;;;;8.51;100.00;98670.75;105318;1268;61330;-76
2022/05/28 02:23:07;;;;;;;14.80;12.30;;;;;;;8.48;100.00;98669.37;105336;1267;62314;-75
2022/05/28 02:25:48;;;;;;;15.00;13.30;;;;;;;8.45;100.00;98665.66;105274;1268;75230;-76
2022/05/28 02:28:16;;;;;;;13.40;12.00;;;;;;;8.42;100.00;98661.60;105196;1268;70012;-76
2022/05/28 02:30:49;;;;;;;15.80;13.40;;;;;;;8.39;100.00;98662.67;105269;1268;73508;-77
2022/05/28 02:33:17;;;;;;;14.10;12.40;;;;;;;8.38;100.00;98658.67;105382;1268;61371;-76
2022/05/28 02:35:44;;;;;;;14.30;12.90;;;;;;;8.36;100.00;98659.80;104975;1269;61382;-76
2022/05/28 02:38:12;;;;;;;16.50;13.80;;;;;;;8.36;100.00;98658.04;105319;1268;75015;-76
2022/05/28 02:40:39;;;;;;;14.20;12.70;;;;;;;8.36;100.00;98658.40;105263;1268;69111;-76
2022/05/28 02:43:06;;;;;;;16.50;13.60;;;;;;;8.36;100.00;98658.58;105358;1269;72958;-76
2022/05/28 02:45:33;;;;;;;16.20;14.40;;;;;;;8.37;100.00;98657.11;105287;1269;61525;-75
2022/05/28 02:47:59;;;;;;;15.40;12.60;;;;;;;8.37;100.00;98660.47;105293;1268;61252;-77
2022/05/28 02:50:26;;;;;;;15.20;13.40;;;;;;;8.38;100.00;98656.38;105275;1268;61144;-76
2022/05/28 02:52:53;;;;;;;17.10;15.00;;;;;;;8.36;100.00;98660.35;105278;1268;69310;-76
2022/05/28 02:55:20;;;;;;;16.50;14.40;;;;;;;8.35;100.00;98656.89;105329;1268;73159;-76
2022/05/28 02:57:47;;;;;;;15.80;13.90;;;;;;;8.34;100.00;98654.10;105290;1268;61360;-75
2022/05/28 03:00:14;;;;;;;16.10;14.50;;;;;;;8.34;100.00;98657.45;105295;1268;61263;-77
2022/05/28 03:02:45;;;;;;;15.40;13.90;;;;;;;8.35;100.00;98657.25;105297;1269;76443;-76
2022/05/28 03:05:13;;;;;;;;;;;;;;;8.35;100.00;98659.34;105255;1268;69416;-76
2022/05/28 03:07:40;;;;;;;15.80;14.10;;;;;;;8.36;100.00;98657.85;105008;1271;74627;-75
2022/05/28 03:10:08;;;;;;;18.10;15.80;;;;;;;8.38;100.00;98657.97;105294;1268;61281;-75
2022/05/28 03:12:34;;;;;;;16.60;14.20;;;;;;;8.41;100.00;98659.77;105317;1268;61303;-76
2022/05/28 03:15:01;;;;;;;17.20;14.70;;;;;;;8.43;100.00;98656.80;105266;1268;61156;-76
2022/05/28 03:17:28;;;;;;;15.30;13.80;;;;;;;8.45;100.00;98657.54;105296;1267;69419;-75
2022/05/28 03:19:54;;;;;;;16.40;14.50;;;;;;;8.48;100.00;98658.61;105289;1268;61371;-75
2022/05/28 03:22:21;;;;;;;17.80;15.20;;;;;;;8.51;100.00;98659.08;105298;1268;61294;-75
2022/05/28 03:24:47;;;;;;;17.60;13.70;;;;;;;8.55;100.00;98656.90;105296;1268;61330;-75
2022/05/28 03:27:14;;;;;;;16.00;14.40;;;;;;;8.60;100.00;98652.71;105320;1268;61328;-76
2022/05/28 03:29:40;;;;;;;15.30;13.80;;;;;;;8.63;100.00;98653.36;105326;1269;61341;-76
2022/05/28 03:32:07;;;;;;;16.00;14.50;;;;;;;8.66;100.00;98654.43;105005;1271;74442;-76
2022/05/28 03:34:34;;;;;;;17.10;15.10;;;;;;;8.66;100.00;98653.56;105284;1268;61380;-76
2022/05/28 03:37:00;;;;;;;17.50;15.70;;;;;;;8.65;100.00;98657.88;105267;1268;61253;-76
2022/05/28 03:39:27;;;;;;;16.40;14.90;;;;;;;8.68;100.00;98658.73;105313;1267;61266;-76
2022/05/28 03:41:53;;;;;;;16.00;14.40;;;;;;;8.81;100.00;98658.60;105324;1268;61311;-76
2022/05/28 03:44:20;;;;;;;15.70;14.10;;;;;;;8.96;100.00;98656.70;105285;1268;61285;-76
2022/05/28 03:46:47;;;;;;;14.40;12.90;;;;;;;9.40;100.00;98657.49;105359;1268;61424;-74
2022/05/28 03:49:14;;;;;;;13.70;12.50;;;;;;;10.30;100.00;98655.41;105419;1268;61580;-75
2022/05/28 03:51:40;;;;;;;13.10;11.80;;;;;;;10.42;100.00;98655.63;105297;1268;61434;-76
2022/05/28 03:54:07;;;;;;;12.90;11.60;;;;;;;10.61;100.00;98653.19;105300;1268;61457;-76
2022/05/28 03:56:39;;;;;;;11.40;10.20;;;;;;;11.57;100.00;98649.41;105298;1268;61300;-76
2022/05/28 03:59:07;;;;;;;9.70;8.50;;;;;;;12.64;100.00;98639.70;105296;1268;61769;-76
2022/05/28 04:01:35;;;;;;;8.40;7.70;;;;;;;13.56;100.00;98638.04;105381;1268;61131;-76
2022/05/28 04:04:02;;;;;;;9.20;7.10;;;;;;;14.38;100.00;98639.49;105306;1268;75422;-74
2022/05/28 04:06:29;;;;;;;8.10;7.40;;;;;;;15.10;100.00;98632.70;104892;1271;69375;-78
2022/05/28 04:08:56;;;;;;;7.20;6.60;;;;;;;15.83;100.00;98630.09;105201;1268;73150;-77
2022/05/28 04:11:22;;;;;;;6.40;5.80;;;;;;;16.42;100.00;98620.84;105129;1268;61485;-76
2022/05/28 04:13:50;;;;;;;6.50;5.90;;;;;;;16.87;100.00;98622.91;105322;1268;61373;-77
2022/05/28 04:16:17;;;;;;;6.00;5.40;;;;;;;16.64;100.00;98623.77;105337;1268;74281;-76
2022/05/28 04:18:43;;;;;;;6.30;5.50;;;;;;;16.09;100.00;98625.65;105280;1268;68998;-76
2022/05/28 04:21:10;;;;;;;7.80;6.90;;;;;;;16.73;100.00;98626.84;105309;1268;74224;-77
2022/05/28 04:23:37;;;;;;;7.40;5.70;;;;;;;16.37;100.00;98629.76;105278;1268;61342;-76
2022/05/28 04:26:04;;;;;;;7.50;5.90;;;;;;;15.95;100.00;98628.92;105073;1271;61329;-78
2022/05/28 04:28:31;;;;;;;6.30;5.60;;;;;;;15.41;100.00;98633.97;105309;1268;75222;-77
2022/05/28 04:30:58;;;;;;;6.10;5.50;;;;;;;15.09;100.00;98639.45;105285;1268;69309;-76
2022/05/28 04:33:25;;;;;;;8.20;5.60;;;;;;;15.94;100.00;98632.48;105297;1268;74652;-77
2022/05/28 04:35:52;;;;;;;6.80;4.90;;;;;;;16.78;100.00;98633.52;104998;1271;61275;-76
2022/05/28 04:38:18;;;;;;;8.30;5.10;;;;;;;16.66;100.00;98631.23;105306;1268;61295;-76
2022/05/28 04:40:45;;;;;;;5.30;4.80;;;;;;;17.00;100.00;98630.48;105324;1268;75067;-76
2022/05/28 04:43:11;;;;;;;6.00;5.00;;;;;;;16.71;100.00;98629.14;105331;1268;61391;-76
2022/05/28 04:45:38;;;;;;;6.40;4.60;;;;;;;16.00;100.00;98630.77;105297;1268;61266;-76
2022/05/28 04:48:05;;;;;;;5.60;4.80;;;;;;;15.41;100.00;98635.02;105291;1268;61302;-77
2022/05/28 04:50:31;;;;;;;5.10;4.60;;;;;;;15.05;100.00;98639.80;105295;1268;61215;-78
2022/05/28 04:52:58;;;;;;;5.80;4.50;;;;;;;14.73;100.00;98642.65;105320;1268;61212;-77
2022/05/28 04:55:24;;;;;;;9.80;6.10;;;;;;;14.42;100.00;98643.85;105323;1268;61663;-77
2022/05/28 04:57:54;;;;;;;9.80;5.30;;;;;;;14.15;100.00;98641.85;105007;1268;61471;-77
2022/05/28 05:00:25;;;;;;;;;;;;;;;13.85;100.00;98639.30;105330;1268;61363;-78
2022/05/28 05:02:52;;;;;;;5.90;4.70;;;;;;;13.65;100.00;98642.84;105123;1268;61319;-77
2022/05/28 05:05:19;;;;;;;7.60;4.60;;;;;;;13.57;100.00;98645.30;105303;1268;75845;-76
2022/05/28 05:07:46;;;;;;;8.80;5.40;;;;;;;13.50;100.00;98643.02;105295;1268;70426;-77
2022/05/28 05:10:12;;;;;;;6.20;4.30;;;;;;;13.40;100.00;98639.02;105296;1268;73582;-77
2022/05/28 05:12:39;;;;;;;7.90;4.80;;;;;;;13.33;100.00;98633.73;105315;1268;61713;-77
2022/05/28 05:15:06;;;;;;;7.40;4.40;;;;;;;13.32;100.00;98643.11;105350;1268;61352;-76
2022/05/28 05:17:33;;;;;;;6.00;4.60;;;;;;;13.34;100.00;98646.29;105386;1268;75480;-77
2022/05/28 05:19:59;;;;;;;8.40;4.10;;;;;;;13.32;100.00;98651.25;105327;1268;61371;-77
2022/05/28 05:22:26;;;;;;;10.50;4.70;;;;;;;13.24;100.00;98656.04;105337;1268;74313;-76
2022/05/28 05:24:52;;;;;;;10.70;5.40;;;;;;;13.18;100.00;98659.05;105315;1268;61277;-77
2022/05/28 05:27:19;;;;;;;11.60;4.60;;;;;;;13.09;100.00;98661.77;105332;1268;61282;-77
2022/05/28 05:29:46;;;;;;;9.00;4.80;;;;;;;13.04;100.00;98666.11;105410;1268;75422;-77
2022/05/28 05:32:13;;;;;;;6.90;4.20;;;;;;;13.01;100.00;98665.95;105211;1268;68904;-77
2022/05/28 05:34:42;;;;;;;7.20;4.00;;;;;;;13.40;100.00;98664.30;105319;1268;61200;-77
2022/05/28 05:37:08;;;;;;;8.20;3.90;;;;;;;14.37;100.00;98664.45;105334;1268;61258;-77
2022/05/28 05:39:35;;;;;;;7.10;3.70;;;;;;;14.84;100.00;98661.88;105318;1268;61291;-78
2022/05/28 05:42:01;;;;;;;6.90;4.10;;;;;;;14.99;100.00;98659.70;105364;1268;61284;-78
2022/05/28 05:44:28;;;;;;;4.60;3.20;;;;;;;15.84;100.00;98660.94;105393;1268;61264;-77
2022/05/28 05:46:55;;;;;;;4.90;2.90;;;;;;;16.60;100.00;98657.08;105285;1268;61284;-77
2022/05/28 05:49:21;;;;;;;6.10;2.40;;;;;;;16.16;100.00;98664.19;105319;1268;61287;-78
2022/05/28 05:51:48;;;;;;;6.70;3.20;;;;;;;15.74;100.00;98665.67;105371;1268;61216;-78
2022/05/28 05:54:16;;;;;;;7.00;3.50;;;;;;;15.46;100.00;98666.66;105430;1268;75289;-78
2022/05/28 05:56:42;;;;;;;6.20;3.10;;;;;;;15.24;100.00;98667.41;105398;1268;69277;-79
2022/05/28 05:59:09;;;;;;;6.30;2.00;;;;;;;15.45;100.00;98662.95;105082;1271;61366;-77
2022/05/28 06:01:35;;;;;;;4.90;2.10;;;;;;;16.00;100.00;98656.40;105356;1268;61345;-79
2022/05/28 06:04:01;;;;;;;5.00;2.00;;;;;;;16.82;100.00;98656.08;105326;1268;61947;-77
2022/05/28 06:06:28;;;;;;;4.50;2.00;;;;;;;17.32;100.00;98654.93;105341;1268;61236;-79
2022/05/28 06:08:55;;;;;;;4.70;2.10;;;;;;;17.81;100.00;98648.84;105327;1268;61320;-78
2022/05/28 06:11:21;;;;;;;4.50;2.00;;;;;;;17.58;100.00;98652.77;105333;1268;61336;-78
2022/05/28 06:13:48;;;;;;;5.00;2.00;;;;;;;17.12;100.00;98656.21;105344;1268;61397;-77
2022/05/28 06:16:14;;;;;;;5.00;1.70;;;;;;;17.06;99.64;98661.30;105346;1268;61894;-76
2022/05/28 06:18:41;;;;;;;3.20;1.60;;;;;;;16.29;99.59;98665.98;105004;1268;76024;-78
2022/05/28 06:21:08;;;;;;;5.70;2.20;;;;;;;15.72;100.00;98664.95;105376;1268;70160;-75
2022/05/28 06:23:35;;;;;;;4.70;1.90;;;;;;;15.41;100.00;98672.48;105373;1268;61602;-79
2022/05/28 06:26:05;;;;;;;2.60;1.50;;;;;;;15.31;100.00;98668.52;105388;1268;61262;-77
2022/05/28 06:28:31;;;;;;;4.30;2.00;;;;;;;15.50;100.00;98666.05;105347;1268;61312;-77
2022/05/28 06:31:05;;;;;;;6.10;1.70;;;;;;;15.80;100.00;98658.48;105357;1268;74118;-79
2022/05/28 06:33:32;;;;;;;6.30;2.10;;;;;;;16.10;100.00;98659.67;105465;1268;69631;-78
2022/05/28 06:36:01;;;;;;;4.40;1.80;;;;;;;16.58;99.81;98650.49;105312;1268;73214;-78
2022/05/28 06:38:27;;;;;;;3.40;1.70;;;;;;;16.57;99.51;98650.64;105390;1268;61301;-78
2022/05/28 06:40:55;;;;;;;4.70;1.90;;;;;;;16.19;100.00;98649.21;105384;1268;61275;-78
2022/05/28 06:43:21;;;;;;;4.90;1.70;;;;;;;16.13;100.00;98648.80;105333;1267;75640;-77
2022/05/28 06:45:48;;;;;;;4.40;1.60;;;;;;;16.09;100.00;98649.70;104989;1268;61177;-79
2022/05/28 06:48:15;;;;;;;5.10;1.50;;;;;;;15.84;99.94;98643.83;105370;1268;73637;-78
2022/05/28 06:53:34;;;;;;;3.70;1.40;;;;;;;15.38;100.00;98653.79;105450;1268;61269;-77
2022/05/28 06:56:02;;;;;;;3.60;1.30;;;;;;;15.27;100.00;98654.45;105612;1268;76142;-77
2022/05/28 06:58:29;;;;;;;4.20;1.60;;;;;;;15.09;100.00;98648.52;105832;1267;69691;-77
2022/05/28 07:00:55;;;;;;;4.90;1.60;;;;;;;15.19;100.00;98649.78;105584;1268;61374;-77
2022/05/28 07:03:26;;;;;;;4.50;1.60;;;;;;;15.74;99.90;98641.08;105420;1268;61342;-78
2022/05/28 07:05:53;;;;;;;3.70;1.10;;;;;;;16.39;99.06;98639.59;105466;1268;61461;-77
2022/05/28 07:08:21;;;;;;;4.50;1.10;;;;;;;16.81;98.60;98639.89;105353;1268;76419;-79
2022/05/28 07:10:52;;;;;;;4.60;1.30;;;;;;;17.20;96.84;98636.70;105312;1268;70138;-77
2022/05/28 07:13:21;;;;;;;2.20;1.30;;;;;;;17.58;95.08;98632.90;105378;1268;73141;-76
2022/05/28 07:15:48;;;;;;;3.10;0.90;;;;;;;17.98;93.44;98634.60;105153;1268;61202;-78
2022/05/28 07:18:15;;;;;;;3.20;1.20;;;;;;;18.18;94.56;98628.89;105445;1267;61348;-78
2022/05/28 07:20:42;;;;;;;4.40;1.90;;;;;;;18.56;88.08;98624.65;106489;1268;75796;-78
2022/05/28 07:23:14;;;;;;;4.60;1.20;;;;;;;18.62;89.36;98624.95;106896;1268;70520;-78
2022/05/28 07:25:42;;;;;;;2.50;1.00;;;;;;;18.69;90.31;98621.16;106360;1268;73221;-77
2022/05/28 07:28:25;;;;;;;1.80;1.10;;;;;;;18.84;89.02;98621.20;105447;1268;61335;-78
2022/05/28 07:31:17;;;;;;;1.80;0.90;;;;;;;18.90;88.59;98609.14;105263;1268;61954;-78
2022/05/28 07:33:45;;;;;;;4.60;1.00;;;;;;;18.75;87.25;98608.81;105554;1268;75345;-77
2022/05/28 07:36:21;;;;;;;4.80;1.70;;;;;;;18.48;86.35;98609.02;105407;1268;70266;-78
2022/05/28 07:38:48;;;;;;;4.50;0.70;;;;;;;18.47;85.57;98609.45;105331;1268;74266;-77
2022/05/28 07:41:24;;;;;;;1.90;0.70;;;;;;;18.41;82.23;98608.87;105337;1267;61605;-78
2022/05/28 07:43:52;;;;;;;2.60;1.20;;;;;;;18.01;78.37;98614.80;105536;1268;61390;-77
2022/05/28 07:46:21;;;;;;;3.20;0.90;;;;;;;17.53;73.98;98612.38;105431;1268;73454;-77
2022/05/28 07:48:49;;;;;;;4.10;0.80;;;;;;;17.11;72.36;98611.58;105337;1268;70041;-78
2022/05/28 07:51:17;;;;;;;4.70;1.10;;;;;;;17.07;69.11;98607.33;105403;1268;74607;-77
2022/05/28 07:53:43;;;;;;;5.00;1.90;;;;;;;17.11;69.71;98603.36;105389;1267;61375;-80
2022/05/28 07:56:11;;;;;;;2.80;1.40;;;;;;;17.15;69.34;98607.04;105109;1268;61381;-78
2022/05/28 07:58:38;;;;;;;3.00;1.30;;;;;;;17.09;67.05;98605.20;105272;1268;75111;-78
2022/05/28 08:01:06;;;;;;;3.30;0.80;;;;;;;16.84;66.40;98604.77;105355;1268;70395;-78
2022/05/28 08:03:34;;;;;;;4.20;1.40;;;;;;;16.66;68.50;98600.05;105362;1268;73067;-77
2022/05/28 08:06:01;;;;;;;4.70;1.30;;;;;;;16.69;68.51;98601.02;105405;1267;61335;-78
2022/05/28 08:08:28;;;;;;;2.80;1.00;;;;;;;16.71;67.69;98605.98;105306;1267;61328;-77
2022/05/28 08:10:54;;;;;;;2.80;1.10;;;;;;;16.56;66.30;98606.77;105351;1268;75662;-77
2022/05/28 08:13:24;;;;;;;5.30;1.30;;;;;;;16.32;66.04;98601.36;105354;1268;69151;-79
2022/05/28 08:15:52;;;;;;;4.20;1.40;;;;;;;16.35;67.81;98595.76;105541;1267;74458;-78
2022/05/28 08:18:23;;;;;;;2.90;1.40;;;;;;;16.68;68.00;98592.64;105507;1268;61303;-78
2022/05/28 08:23:38;;;;;;;2.90;1.60;;;;;;;17.52;66.95;98590.55;105312;1268;75323;-78
2022/05/28 08:26:05;;;;;;;4.20;1.30;;;;;;;17.54;66.35;98584.23;105106;1268;67349;-77
2022/05/28 08:28:31;;;;;;;4.20;1.80;;;;;;;17.69;66.58;98587.55;105344;1268;73151;-78
2022/05/28 08:30:58;;;;;;;3.70;1.70;;;;;;;18.02;66.02;98587.20;105346;1268;61374;-78
2022/05/28 08:33:25;;;;;;;2.30;1.00;;;;;;;18.06;65.16;98582.55;105554;1268;61173;-78
2022/05/28 08:35:51;;;;;;;2.30;1.20;;;;;;;17.90;60.48;98585.42;105336;1268;73648;-78
2022/05/28 08:38:20;;;;;;;2.90;1.30;;;;;;;18.16;61.42;98587.98;105101;1269;68859;-78
2022/05/28 08:40:53;;;;;;;2.80;1.00;;;;;;;18.43;57.63;98584.57;105414;1268;73271;-78
2022/05/28 08:43:22;;;;;;;3.60;1.20;;;;;;;18.16;55.91;98588.33;105491;1268;61361;-78
2022/05/28 08:45:50;;;;;;;2.50;1.00;;;;;;;17.66;55.83;98585.17;105345;1268;61221;-78
2022/05/28 08:48:22;;;;;;;3.40;0.80;;;;;;;17.15;57.03;98595.90;105151;1268;74674;-79
2022/05/28 08:50:56;;;;;;;3.30;1.60;;;;;;;16.65;56.62;98601.79;105349;1268;70342;-78
2022/05/28 08:53:28;;;;;;;2.60;1.20;;;;;;;16.25;57.87;98597.73;105349;1268;74471;-78
2022/05/28 08:55:57;;;;;;;4.50;1.40;;;;;;;16.10;58.65;98597.67;105397;1268;61342;-79
2022/05/28 08:58:28;;;;;;;2.10;0.90;;;;;;;16.06;58.46;98594.25;105371;1268;61255;-78
2022/05/28 09:01:14;;;;;;;6.10;1.40;;;;;;;15.98;58.05;98593.04;105358;1268;75296;-77
2022/05/28 09:03:54;;;;;;;3.30;1.50;;;;;;;16.42;59.52;98588.23;105359;1268;70237;-78
2022/05/28 09:06:38;;;;;;;3.60;1.00;;;;;;;16.84;55.61;98580.20;105352;1268;71847;-78
2022/05/28 09:09:08;;;;;;;2.10;0.90;;;;;;;17.09;55.31;98574.80;105312;1268;61322;-77
2022/05/28 09:11:46;;;;;;;2.70;1.10;;;;;;;17.52;56.80;98574.57;105329;1268;61345;-79
2022/05/28 09:14:18;;;;;;;2.80;0.90;;;;;;;18.14;55.74;98571.05;105329;1268;75124;-79
2022/05/28 09:16:47;;;;;;;2.70;0.90;;;;;;;18.31;53.25;98577.13;105297;1268;69892;-80
2022/05/28 09:19:18;;;;;;;2.40;0.90;;;;;;;18.25;54.01;98574.17;105384;1268;72201;-80
2022/05/28 09:21:46;;;;;;;2.70;0.70;;;;;;;18.21;54.18;98575.92;105344;1268;61327;-77
2022/05/28 09:24:20;;;;;;;2.60;0.90;;;;;;;18.10;53.99;98577.41;105327;1268;61387;-78
2022/05/28 09:27:05;;;;;;;3.60;0.70;;;;;;;17.89;53.23;98581.73;105497;1268;75145;-77
2022/05/28 09:29:59;;;;;;;3.50;0.70;;;;;;;17.68;53.76;98582.11;105082;1268;69107;-79
2022/05/28 09:32:58;;;;;;;2.30;1.10;;;;;;;17.48;53.41;98581.11;105295;1268;73470;-79
2022/05/28 09:35:43;;;;;;;2.60;1.00;;;;;;;16.97;52.64;98589.48;104784;1277;61323;-79
2022/05/28 09:38:19;;;;;;;3.80;1.00;;;;;;;16.43;53.24;98591.53;104845;1277;61454;-78
2022/05/28 09:40:55;;;;;;;3.70;1.20;;;;;;;16.12;54.30;98594.55;104863;1276;74624;-78
2022/05/28 09:43:28;;;;;;;2.50;1.00;;;;;;;15.96;55.38;98592.48;104842;1277;67781;-78
2022/05/28 09:46:31;;;;;;;4.10;1.30;;;;;;;15.97;55.76;98596.35;104789;1276;73188;-79
2022/05/28 09:49:10;;;;;;;3.80;0.90;;;;;;;16.03;55.01;98580.31;103983;1283;61628;-78
2022/05/28 09:51:37;;;;;;;3.50;1.30;;;;;;;16.12;53.96;98576.96;103969;1285;61461;-78
2022/05/28 09:54:20;;;;;;;4.10;1.30;;;;;;;16.22;54.45;98577.09;104045;1284;75288;-78
2022/05/28 09:57:11;;;;;;;3.60;1.30;;;;;;;16.42;54.95;98578.89;103924;1284;70377;-77
2022/05/28 09:59:44;;;;;;;4.30;1.30;;;;;;;16.37;53.18;98577.48;103463;1290;73274;-77
2022/05/28 10:02:17;;;;;;;3.40;1.10;;;;;;;16.26;53.99;98577.96;103484;1291;61421;-79
2022/05/28 10:04:44;;;;;;;5.80;1.90;;;;;;;16.35;54.26;98573.80;103609;1288;61508;-78
2022/05/28 10:07:10;;;;;;;4.20;1.20;;;;;;;16.52;55.25;98569.48;103490;1290;61453;-78
2022/05/28 10:09:49;;;;;;;4.00;1.20;;;;;;;16.78;55.09;98568.54;103616;1288;61468;-77
2022/05/28 10:12:23;;;;;;;5.10;1.90;;;;;;;16.90;54.14;98569.36;103711;1284;73840;-78
2022/05/28 10:15:28;;;;;;;3.30;1.40;;;;;;;16.82;53.52;98568.66;103928;1284;61399;-78
2022/05/28 10:18:02;;;;;;;5.40;1.50;;;;;;;16.70;54.59;98568.27;103502;1290;61190;-77
2022/05/28 10:20:30;;;;;;;3.10;1.10;;;;;;;16.60;54.91;98580.56;103637;1289;75228;-86
2022/05/28 10:23:01;;;;;;;6.50;2.00;;;;;;;16.47;55.49;98581.60;103844;1288;69042;-80
2022/05/28 10:25:27;;;;;;;4.10;0.80;;;;;;;16.35;55.98;98573.83;103492;1288;73413;-69
2022/05/28 10:27:55;;;;;;;2.80;1.20;;;;;;;16.40;56.60;98573.66;104331;1283;61356;-70
2022/05/28 10:30:30;;;;;;;3.10;0.90;;;;;;;16.73;57.52;98568.34;104316;1283;62160;-71
2022/05/28 10:32:57;;;;;;;3.40;1.20;;;;;;;17.32;57.91;98562.98;104324;1283;76470;-70
2022/05/28 10:35:27;;;;;;;4.20;0.90;;;;;;;17.83;56.70;98569.83;104384;1283;69561;-70
2022/05/28 10:38:05;;;;;;;2.40;1.00;;;;;;;18.01;56.56;98569.00;104796;1277;71614;-70
2022/05/28 10:40:32;;;;;;;3.70;1.10;;;;;;;18.12;56.31;98577.45;104803;1277;61364;-70
2022/05/28 10:43:03;;;;;;;4.70;1.00;;;;;;;18.06;56.37;98586.29;104817;1277;61258;-70
2022/05/28 10:45:57;;;;;;;1.70;0.80;;;;;;;17.86;56.81;98588.22;104945;1277;76328;-71
2022/05/28 10:48:49;;;;;;;2.00;1.00;;;;;;;17.53;56.22;98583.59;104804;1277;68201;-70
2022/05/28 10:51:32;;;;;;;2.60;1.10;;;;;;;17.35;56.11;98578.27;103958;1284;73085;-71
2022/05/28 10:54:06;;;;;;;3.30;1.00;;;;;;;17.49;57.43;98571.49;104220;1276;61356;-70
2022/05/28 10:56:52;;;;;;;2.40;1.30;;;;;;;17.65;56.30;98575.79;104812;1277;62036;-70
2022/05/28 10:59:19;;;;;;;2.40;1.00;;;;;;;17.86;56.58;98571.27;104583;1278;75304;-70
2022/05/28 11:01:54;;;;;;;3.50;0.60;;;;;;;18.09;56.35;98571.20;104809;1277;61290;-71
2022/05/28 11:04:23;;;;;;;1.50;0.70;;;;;;;18.26;54.62;98574.98;104810;1277;73292;-70
2022/05/28 11:06:57;;;;;;;2.20;0.80;;;;;;;18.42;55.53;98567.77;104453;1276;61545;-70
2022/05/28 11:09:51;;;;;;;1.80;0.90;;;;;;;18.49;55.46;98570.63;104742;1277;61784;-69
2022/05/28 11:12:56;;;;;;;4.00;1.60;;;;;;;18.62;55.37;98578.73;104599;1276;74733;-68
2022/05/28 11:15:58;;;;;;;2.70;0.80;;;;;;;18.60;50.71;98590.45;104019;1282;68929;-69
2022/05/28 11:18:45;;;;;;;5.70;0.90;;;;;;;18.15;46.78;98591.80;103473;1290;74624;-70
2022/05/28 11:21:46;;;;;;;1.00;0.70;;;;;;;17.93;46.37;98591.88;103200;1290;61481;-70
2022/05/28 11:24:49;;;;;;;2.40;1.10;;;;;;;17.95;47.94;98599.58;103455;1290;61906;-69
2022/05/28 11:27:31;;;;;;;1.20;0.70;;;;;;;18.07;47.55;98602.69;103440;1290;76303;-70
2022/05/28 11:30:04;;;;;;;3.60;1.00;;;;;;;18.14;48.02;98597.25;103963;1284;70238;-69
2022/05/28 11:32:39;;;;;;;4.10;0.70;;;;;;;18.23;47.10;98607.88;103949;1284;74307;-70
2022/05/28 11:35:43;;;;;;;1.20;0.70;;;;;;;17.99;45.08;98613.95;103977;1284;61330;-72
2022/05/28 11:38:47;;;;;;;1.60;0.70;;;;;;;17.64;45.58;98624.87;103994;1284;61856;-70
2022/05/28 11:41:28;;;;;;;2.40;1.00;;;;;;;17.03;45.77;98645.04;103942;1284;76656;-70
2022/05/28 11:44:17;;;;;;;0.90;0.60;;;;;;;16.16;48.94;98673.55;103972;1284;69246;-70